Millerton, Oklahoma
Current Conditions -  °F | °C
As of 5:35 PM on Saturday 22 Nov 2014 (Local Time) from K4O4 Reporting Station
Broken Clouds Broken Clouds  
Wind Chill: 59°   Ceiling: 3900
Heat Index: 59°   Visibility: 10mi
Dew Point: 54°   Wind: 7mph
Humidity: 82%   Direction: 80°E
Pressure: 29.92"   Gusts: NA
Location:  33.99°N, 95.01°W
Report Text: K4O4 222335Z AUTO 08006KT 10SM BKN039 15/12 A2992 RMK AO2
Loading
Personal Weather Stations






























Interactive Weather Map New forecast layout! Learn more

10-Day Weather Forecast

Advertisements
Track Severe Weather on mobile